createdAt,value
2022-08-05T00:01:35.574Z,100504.09
2022-08-05T00:04:05.082Z,100500.81
2022-08-05T00:06:36.653Z,100503.38
2022-08-05T00:09:13.169Z,100503.72
2022-08-05T00:11:49.637Z,100501.28
2022-08-05T00:14:27.540Z,100495.31
2022-08-05T00:16:57.833Z,100496.22
2022-08-05T00:19:33.086Z,100494.22
2022-08-05T00:22:03.160Z,100492.25
2022-08-05T00:24:35.190Z,100489.06
2022-08-05T00:27:04.646Z,100491.63
2022-08-05T00:29:38.552Z,100491.69
2022-08-05T00:32:13.435Z,100488.34
2022-08-05T00:35:05.306Z,100493.28
2022-08-05T00:37:35.894Z,100488.78
2022-08-05T00:40:27.965Z,100485.03
2022-08-05T00:43:02.491Z,100479.75
2022-08-05T00:45:38.986Z,100487.78
2022-08-05T00:48:31.179Z,100487.19
2022-08-05T00:50:59.687Z,100487.44
2022-08-05T00:53:45.017Z,100485.41
2022-08-05T00:56:25.257Z,100478.13
2022-08-05T00:58:53.629Z,100474.50
2022-08-05T01:01:24.897Z,100478.44
2022-08-05T01:04:13.675Z,100474.16
2022-08-05T01:06:46.672Z,100473.94
2022-08-05T01:09:17.303Z,100468.16
2022-08-05T01:11:52.231Z,100471.44
2022-08-05T01:14:27.229Z,100466.53
2022-08-05T01:17:12.143Z,100455.03
2022-08-05T01:20:02.240Z,100459.53
2022-08-05T01:22:57.640Z,100454.69
2022-08-05T01:25:57.160Z,100450.88
2022-08-05T01:28:49.658Z,100456.91
2022-08-05T01:31:20.492Z,100449.94
2022-08-05T01:34:17.862Z,100447.25
2022-08-05T01:37:07.275Z,100442.13
2022-08-05T01:39:47.923Z,100441.97
2022-08-05T01:42:20.755Z,100446.56
2022-08-05T01:44:54.222Z,100445.81
2022-08-05T01:47:39.254Z,100449.25
2022-08-05T01:50:28.734Z,100446.41
2022-08-05T01:53:02.967Z,100448.09
2022-08-05T01:55:36.322Z,100450.03
2022-08-05T01:58:29.946Z,100445.16
2022-08-05T02:01:00.118Z,100446.00
2022-08-05T02:03:51.610Z,100446.88
2022-08-05T02:06:37.018Z,100445.84
2022-08-05T02:09:07.464Z,100445.03
2022-08-05T02:11:55.558Z,100444.25
2022-08-05T02:14:57.815Z,100446.16
2022-08-05T02:18:31.343Z,100444.53
2022-08-05T02:20:40.166Z,100441.41
2022-08-05T02:23:11.930Z,100439.09
2022-08-05T02:25:50.066Z,100440.47
2022-08-05T02:28:29.104Z,100442.09
2022-08-05T02:31:07.894Z,100447.72
2022-08-05T02:33:57.709Z,100450.00
2022-08-05T02:36:31.375Z,100444.91
2022-08-05T02:39:03.129Z,100450.94
2022-08-05T02:41:42.914Z,100456.09
2022-08-05T02:44:24.399Z,100445.09
2022-08-05T02:46:59.862Z,100447.56
2022-08-05T02:49:44.616Z,100438.38
2022-08-05T02:52:25.874Z,100445.41
2022-08-05T02:55:05.589Z,100440.06
2022-08-05T02:58:10.570Z,100439.50
2022-08-05T03:00:30.019Z,100441.56
2022-08-05T03:03:00.115Z,100443.59
2022-08-05T03:06:55.889Z,100438.41
2022-08-05T03:08:19.543Z,100434.91
2022-08-05T03:11:01.127Z,100432.41
2022-08-05T03:13:51.630Z,100436.09
2022-08-05T03:16:31.569Z,100433.50
2022-08-05T03:19:01.490Z,100432.13
2022-08-05T03:21:41.554Z,100432.34
2022-08-05T03:24:26.848Z,100430.53
2022-08-05T03:27:00.034Z,100434.63
2022-08-05T03:29:46.029Z,100433.41
2022-08-05T03:32:19.464Z,100429.09
2022-08-05T03:34:50.653Z,100428.50
2022-08-05T03:37:21.305Z,100435.50
2022-08-05T03:40:01.920Z,100435.06
2022-08-05T03:42:41.455Z,100441.59
2022-08-05T03:45:21.706Z,100439.72
2022-08-05T03:47:51.947Z,100447.31
2022-08-05T03:50:32.399Z,100441.75
2022-08-05T03:55:00.247Z,100441.16
2022-08-05T03:56:26.848Z,100440.50
2022-08-05T03:59:02.950Z,100439.28
2022-08-05T04:01:35.515Z,100431.47
2022-08-05T04:04:08.854Z,100430.44
2022-08-05T04:06:47.774Z,100429.78
2022-08-05T04:09:26.552Z,100427.75
2022-08-05T04:11:57.104Z,100435.47
2022-08-05T04:14:30.495Z,100423.94
2022-08-05T04:17:06.177Z,100432.56
2022-08-05T04:19:43.120Z,100427.97
2022-08-05T04:22:14.215Z,100437.41
2022-08-05T04:24:52.507Z,100423.38
2022-08-05T04:27:41.640Z,100425.78
2022-08-05T04:30:10.521Z,100419.94
2022-08-05T04:32:38.994Z,100425.28
2022-08-05T04:35:17.380Z,100419.47
2022-08-05T04:38:02.089Z,100418.44
2022-08-05T04:40:36.339Z,100422.78
2022-08-05T04:43:05.297Z,100430.66
2022-08-05T04:45:49.062Z,100421.91
2022-08-05T04:48:27.287Z,100426.88
2022-08-05T04:51:03.574Z,100428.50
2022-08-05T04:53:38.992Z,100436.31
2022-08-05T04:56:33.983Z,100430.13
2022-08-05T04:58:57.076Z,100429.91
2022-08-05T05:01:33.441Z,100427.06
2022-08-05T05:04:02.107Z,100428.03
2022-08-05T05:06:40.039Z,100432.06
2022-08-05T05:09:16.899Z,100418.25
2022-08-05T05:11:53.106Z,100421.88
2022-08-05T05:14:31.344Z,100427.53
2022-08-05T05:17:01.211Z,100418.44
2022-08-05T05:19:36.858Z,100419.94
2022-08-05T05:22:23.489Z,100420.00
2022-08-05T05:24:57.110Z,100424.25
2022-08-05T05:27:41.217Z,100432.03
2022-08-05T05:30:15.484Z,100434.09
2022-08-05T05:33:00.622Z,100436.13
2022-08-05T05:35:37.609Z,100444.59
2022-08-05T05:38:13.819Z,100438.56
2022-08-05T05:40:49.866Z,100436.50
2022-08-05T05:43:27.662Z,100443.63
2022-08-05T05:46:16.097Z,100443.75
2022-08-05T05:48:47.841Z,100446.38
2022-08-05T05:51:28.077Z,100444.41
2022-08-05T05:53:59.823Z,100441.81
2022-08-05T05:56:33.161Z,100438.78
2022-08-05T05:59:07.752Z,100435.84
2022-08-05T06:01:39.319Z,100443.53
2022-08-05T06:04:14.481Z,100438.72
2022-08-05T06:06:47.303Z,100442.00
2022-08-05T06:09:25.402Z,100438.00
2022-08-05T06:12:04.907Z,100438.19
2022-08-05T06:14:34.869Z,100427.97
2022-08-05T06:17:32.250Z,100430.69
2022-08-05T06:19:57.070Z,100435.47
2022-08-05T06:22:33.548Z,100427.44
2022-08-05T06:25:59.173Z,100431.34
2022-08-05T06:28:12.249Z,100438.25
2022-08-05T06:30:41.331Z,100440.84
2022-08-05T06:33:09.903Z,100438.19
2022-08-05T06:36:05.782Z,100442.41
2022-08-05T06:38:35.816Z,100444.09
2022-08-05T06:41:08.015Z,100448.38
2022-08-05T06:43:58.221Z,100436.41
2022-08-05T06:46:29.898Z,100441.19
2022-08-05T06:49:01.232Z,100444.75
2022-08-05T06:51:31.338Z,100444.44
2022-08-05T06:54:02.256Z,100440.56
2022-08-05T06:56:35.230Z,100444.59
2022-08-05T06:59:08.394Z,100449.16
2022-08-05T07:01:40.740Z,100444.56
2022-08-05T07:04:11.218Z,100451.31
2022-08-05T07:06:42.859Z,100452.72
2022-08-05T07:09:11.157Z,100450.66
2022-08-05T07:11:39.982Z,100443.56
2022-08-05T07:14:30.038Z,100446.41
2022-08-05T07:18:00.457Z,100444.72
2022-08-05T07:20:31.189Z,100445.22
2022-08-05T07:22:39.482Z,100445.50
2022-08-05T07:25:23.981Z,100441.78
2022-08-05T07:28:07.259Z,100445.19
2022-08-05T07:30:39.889Z,100439.56
2022-08-05T07:33:16.479Z,100441.22
2022-08-05T07:36:01.939Z,100442.25
2022-08-05T07:38:42.858Z,100438.81
2022-08-05T07:42:07.915Z,100433.19
2022-08-05T07:44:14.505Z,100436.63
2022-08-05T07:46:49.515Z,100443.81
2022-08-05T07:49:18.944Z,100443.06
2022-08-05T07:51:53.896Z,100434.34
2022-08-05T07:54:31.744Z,100432.47
2022-08-05T07:57:17.996Z,100428.22
2022-08-05T07:59:53.897Z,100431.63
2022-08-05T08:02:31.197Z,100427.47
2022-08-05T08:05:18.282Z,100429.44
2022-08-05T08:07:59.827Z,100424.63
2022-08-05T08:10:31.561Z,100433.16
2022-08-05T08:13:01.720Z,100429.97
2022-08-05T08:16:33.657Z,100427.38
2022-08-05T08:18:20.883Z,100432.38
2022-08-05T08:21:02.872Z,100431.63
2022-08-05T08:24:02.441Z,100432.59
2022-08-05T08:26:29.555Z,100430.44
2022-08-05T08:29:02.353Z,100427.69
2022-08-05T08:31:48.645Z,100427.22
2022-08-05T08:34:30.147Z,100428.63
2022-08-05T08:37:04.724Z,100427.53
2022-08-05T08:39:37.348Z,100429.53
2022-08-05T08:42:27.578Z,100417.94
2022-08-05T08:45:24.311Z,100411.75
2022-08-05T08:48:06.746Z,100418.25
2022-08-05T08:51:03.751Z,100420.00
2022-08-05T08:53:35.464Z,100410.97
2022-08-05T08:56:06.995Z,100410.94
2022-08-05T08:58:43.370Z,100421.84
2022-08-05T09:01:17.950Z,100419.50
2022-08-05T09:03:55.712Z,100414.47
2022-08-05T09:06:29.857Z,100414.22
2022-08-05T09:09:01.179Z,100414.66
2022-08-05T09:11:50.911Z,100412.28
2022-08-05T09:14:57.338Z,100415.19
2022-08-05T09:17:41.393Z,100420.22
2022-08-05T09:20:08.824Z,100415.44
2022-08-05T09:23:07.623Z,100417.44
2022-08-05T09:26:01.560Z,100419.72
2022-08-05T09:28:32.381Z,100422.06
2022-08-05T09:31:43.353Z,100420.63
2022-08-05T09:34:06.854Z,100417.03
2022-08-05T09:36:54.143Z,100414.38
2022-08-05T09:39:39.441Z,100413.22
2022-08-05T09:42:24.329Z,100414.84
2022-08-05T09:46:04.994Z,100413.41
2022-08-05T09:47:56.547Z,100415.84
2022-08-05T09:50:44.627Z,100407.00
2022-08-05T09:53:23.022Z,100407.94
2022-08-05T09:56:04.896Z,100396.22
2022-08-05T09:58:41.811Z,100394.19
2022-08-05T10:01:32.104Z,100397.97
2022-08-05T10:04:03.536Z,100383.06
2022-08-05T10:06:33.006Z,100380.44
2022-08-05T10:09:28.279Z,100382.00
2022-08-05T10:12:28.418Z,100384.06
2022-08-05T10:15:20.841Z,100377.78
2022-08-05T10:18:16.854Z,100373.72
2022-08-05T10:20:49.873Z,100374.88
2022-08-05T10:23:55.646Z,100376.22
2022-08-05T10:26:19.617Z,100380.69
2022-08-05T10:28:59.931Z,100372.34
2022-08-05T10:32:54.989Z,100368.50
2022-08-05T10:34:16.968Z,100369.47
2022-08-05T10:36:45.726Z,100370.13
2022-08-05T10:40:03.401Z,100361.94
2022-08-05T10:42:33.958Z,100371.25
2022-08-05T10:45:21.589Z,100363.72
2022-08-05T10:48:29.904Z,100367.06
2022-08-05T10:51:04.024Z,100362.56
2022-08-05T10:53:42.597Z,100363.19
2022-08-05T10:56:25.212Z,100353.22
2022-08-05T10:58:53.976Z,100356.94
2022-08-05T11:01:54.248Z,100358.22
2022-08-05T11:04:26.356Z,100357.25
2022-08-05T11:06:58.028Z,100360.94
2022-08-05T11:09:39.333Z,100360.97
2022-08-05T11:12:45.392Z,100354.81
2022-08-05T11:15:20.321Z,100359.69
2022-08-05T11:17:59.624Z,100357.72
2022-08-05T11:20:41.670Z,100354.28
2022-08-05T11:24:03.383Z,100349.50
2022-08-05T11:26:28.953Z,100350.19
2022-08-05T11:29:14.054Z,100350.47
2022-08-05T11:31:54.183Z,100351.56
2022-08-05T11:34:47.429Z,100344.63
2022-08-05T11:38:29.986Z,100349.97
2022-08-05T11:41:34.206Z,100348.16
2022-08-05T11:44:08.267Z,100342.28
2022-08-05T11:47:09.949Z,100343.63
2022-08-05T11:49:36.352Z,100343.19
2022-08-05T11:52:08.460Z,100345.84
2022-08-05T11:54:41.596Z,100343.78
2022-08-05T11:57:24.785Z,100333.66
2022-08-05T11:59:57.104Z,100332.81
2022-08-05T12:02:31.926Z,100329.47
2022-08-05T12:05:08.078Z,100328.50
2022-08-05T12:08:09.560Z,100327.66
2022-08-05T12:10:45.955Z,100319.22
2022-08-05T12:13:27.809Z,100325.72
2022-08-05T12:16:14.813Z,100321.69
2022-08-05T12:18:49.426Z,100321.34
2022-08-05T12:21:23.760Z,100322.28
2022-08-05T12:24:04.562Z,100318.59
2022-08-05T12:26:44.300Z,100307.97
2022-08-05T12:29:16.249Z,100315.38
2022-08-05T12:31:54.548Z,100305.69
2022-08-05T12:34:28.485Z,100318.50
2022-08-05T12:37:00.012Z,100298.03
2022-08-05T12:39:37.268Z,100308.53
2022-08-05T12:42:17.366Z,100304.97
2022-08-05T12:44:47.515Z,100304.84
2022-08-05T12:47:31.066Z,100310.59
2022-08-05T12:50:04.098Z,100309.44
2022-08-05T12:52:38.918Z,100302.97
2022-08-05T12:55:22.323Z,100293.94
2022-08-05T12:58:38.632Z,100281.81
2022-08-05T13:02:03.140Z,100289.13
2022-08-05T13:03:41.991Z,100276.47
2022-08-05T13:06:17.529Z,100275.06
2022-08-05T13:08:51.740Z,100272.28
2022-08-05T13:12:02.617Z,100269.84
2022-08-05T13:14:36.241Z,100264.66
2022-08-05T13:17:31.902Z,100268.34
2022-08-05T13:20:16.503Z,100262.75
2022-08-05T13:22:51.543Z,100260.06
2022-08-05T13:25:52.837Z,100257.03
2022-08-05T13:28:12.892Z,100257.25
2022-08-05T13:30:42.507Z,100252.09
2022-08-05T13:33:14.355Z,100248.28
2022-08-05T13:36:01.856Z,100232.38
2022-08-05T13:38:35.998Z,100236.63
2022-08-05T13:41:06.681Z,100234.53
2022-08-05T13:43:44.957Z,100235.13
2022-08-05T13:46:43.697Z,100231.00
2022-08-05T13:49:12.867Z,100220.81
2022-08-05T13:51:45.890Z,100224.97
2022-08-05T13:54:21.165Z,100221.00
2022-08-05T13:56:53.675Z,100219.44
2022-08-05T13:59:26.937Z,100209.34
2022-08-05T14:02:00.034Z,100215.38
2022-08-05T14:05:00.714Z,100207.25
2022-08-05T14:08:00.083Z,100207.25
2022-08-05T14:10:28.897Z,100206.84
2022-08-05T14:12:59.885Z,100199.97
2022-08-05T14:16:04.532Z,100195.41
2022-08-05T14:18:18.135Z,100198.50
2022-08-05T14:20:54.442Z,100197.09
2022-08-05T14:23:25.694Z,100194.81
2022-08-05T14:25:59.593Z,100198.03
2022-08-05T14:28:31.346Z,100186.47
2022-08-05T14:31:00.405Z,100189.44
2022-08-05T14:33:32.452Z,100191.66
2022-08-05T14:36:21.450Z,100183.09
2022-08-05T14:38:51.042Z,100185.09
2022-08-05T14:41:19.839Z,100184.50
2022-08-05T14:44:02.698Z,100179.81
2022-08-05T14:46:40.709Z,100173.91
2022-08-05T14:49:08.987Z,100183.22
2022-08-05T14:51:42.595Z,100176.34
2022-08-05T14:54:27.602Z,100179.63
2022-08-05T14:57:01.075Z,100169.50
2022-08-05T14:59:35.846Z,100179.22
2022-08-05T15:02:15.815Z,100166.69
2022-08-05T15:04:47.828Z,100167.47
2022-08-05T15:08:10.866Z,100173.25
2022-08-05T15:10:09.610Z,100169.75
2022-08-05T15:12:59.846Z,100158.97
2022-08-05T15:15:54.029Z,100160.34
2022-08-05T15:18:17.255Z,100151.22
2022-08-05T15:20:46.119Z,100154.47
2022-08-05T15:23:15.495Z,100137.13
2022-08-05T15:25:53.364Z,100136.88
2022-08-05T15:28:27.620Z,100134.59
2022-08-05T15:30:56.811Z,100134.28
2022-08-05T15:34:18.479Z,100133.53
2022-08-05T15:36:17.781Z,100130.69
2022-08-05T15:40:41.631Z,100124.94
2022-08-05T15:41:57.241Z,100125.75
2022-08-05T15:44:28.137Z,100127.47
2022-08-05T15:47:01.141Z,100124.44
2022-08-05T15:49:42.198Z,100117.41
2022-08-05T15:52:52.641Z,100114.97
2022-08-05T15:55:16.244Z,100113.72
2022-08-05T15:57:45.995Z,100116.56
2022-08-05T16:00:32.491Z,100111.16
2022-08-05T16:03:06.482Z,100111.16
2022-08-05T16:05:34.880Z,100107.88
2022-08-05T16:08:07.193Z,100109.78
2022-08-05T16:10:36.363Z,100101.41
2022-08-05T16:13:04.604Z,100103.34
2022-08-05T16:15:34.697Z,100102.78
2022-08-05T16:18:04.292Z,100102.78
2022-08-05T16:20:37.348Z,100108.22
2022-08-05T16:23:09.274Z,100107.50
2022-08-05T16:25:41.425Z,100097.25
2022-08-05T16:28:10.502Z,100109.25
2022-08-05T16:30:39.108Z,100102.09
2022-08-05T16:33:09.726Z,100102.19
2022-08-05T16:35:42.429Z,100120.59
2022-08-05T16:38:24.166Z,100122.50
2022-08-05T16:41:00.116Z,100118.91
2022-08-05T16:43:34.702Z,100119.50
2022-08-05T16:46:12.628Z,100126.84
2022-08-05T16:48:41.392Z,100132.69
2022-08-05T16:51:11.165Z,100129.97
2022-08-05T16:54:04.180Z,100140.84
2022-08-05T16:56:31.063Z,100140.03
2022-08-05T16:59:08.347Z,100148.50
2022-08-05T17:01:52.877Z,100151.31
2022-08-05T17:04:27.293Z,100143.38
2022-08-05T17:07:03.117Z,100145.88
2022-08-05T17:09:39.030Z,100144.34
2022-08-05T17:12:22.614Z,100144.47
2022-08-05T17:15:09.488Z,100147.19
2022-08-05T17:17:44.394Z,100149.22
2022-08-05T17:20:14.730Z,100154.00
2022-08-05T17:22:43.449Z,100153.28
2022-08-05T17:25:22.552Z,100156.81
2022-08-05T17:28:01.820Z,100157.50
2022-08-05T17:30:30.160Z,100163.41
2022-08-05T17:33:01.512Z,100159.16
2022-08-05T17:35:32.641Z,100150.81
2022-08-05T17:38:18.281Z,100157.34
2022-08-05T17:40:47.661Z,100153.16
2022-08-05T17:43:17.924Z,100155.06
2022-08-05T17:46:06.198Z,100159.50
2022-08-05T17:48:38.503Z,100154.53
2022-08-05T17:51:09.330Z,100154.50
2022-08-05T17:53:37.754Z,100145.84
2022-08-05T17:56:06.623Z,100163.47
2022-08-05T17:58:37.715Z,100167.22
2022-08-05T18:01:08.176Z,100171.16
2022-08-05T18:03:58.348Z,100161.53
2022-08-05T18:06:29.329Z,100166.03
2022-08-05T18:08:59.467Z,100166.47
2022-08-05T18:11:32.909Z,100167.38
2022-08-05T18:14:03.485Z,100171.00
2022-08-05T18:16:33.325Z,100174.34
2022-08-05T18:19:02.397Z,100172.28
2022-08-05T18:22:07.503Z,100179.91
2022-08-05T18:24:19.048Z,100176.97
2022-08-05T18:26:49.268Z,100181.41
2022-08-05T18:29:17.569Z,100184.97
2022-08-05T18:32:06.104Z,100188.88
2022-08-05T18:34:41.046Z,100185.16
2022-08-05T18:37:12.047Z,100194.97
2022-08-05T18:40:34.275Z,100192.34
2022-08-05T18:42:32.185Z,100191.91
2022-08-05T18:45:00.392Z,100195.44
2022-08-05T18:47:31.075Z,100199.00
2022-08-05T18:50:21.125Z,100199.06
2022-08-05T18:53:15.617Z,100196.41
2022-08-05T18:55:52.101Z,100203.22
2022-08-05T18:58:27.216Z,100197.81
2022-08-05T19:00:57.843Z,100204.31
2022-08-05T19:03:54.910Z,100198.41
2022-08-05T19:06:20.114Z,100211.69
2022-08-05T19:08:50.764Z,100207.66
2022-08-05T19:11:21.924Z,100221.47
2022-08-05T19:14:01.016Z,100219.03
2022-08-05T19:16:46.895Z,100217.41
2022-08-05T19:19:15.567Z,100227.94
2022-08-05T19:21:51.562Z,100233.34
2022-08-05T19:24:34.127Z,100233.06
2022-08-05T19:27:04.416Z,100240.91
2022-08-05T19:29:35.918Z,100249.53
2022-08-05T19:32:08.611Z,100251.16
2022-08-05T19:34:39.891Z,100260.06
2022-08-05T19:37:10.048Z,100267.09
2022-08-05T19:39:45.866Z,100269.81
2022-08-05T19:42:35.029Z,100276.84
2022-08-05T19:45:06.561Z,100283.56
2022-08-05T19:47:40.284Z,100281.97
2022-08-05T19:50:11.808Z,100290.84
2022-08-05T19:52:40.805Z,100296.25
2022-08-05T19:56:14.629Z,100294.34
2022-08-05T19:58:14.193Z,100295.72
2022-08-05T20:00:47.493Z,100301.13
2022-08-05T20:03:16.004Z,100297.91
2022-08-05T20:05:50.398Z,100310.88
2022-08-05T20:08:24.281Z,100312.50
2022-08-05T20:10:53.804Z,100313.56
2022-08-05T20:13:29.862Z,100316.78
2022-08-05T20:15:59.777Z,100325.16
2022-08-05T20:18:33.120Z,100312.72
2022-08-05T20:21:05.165Z,100320.53
2022-08-05T20:23:51.029Z,100325.44
2022-08-05T20:26:21.634Z,100328.13
2022-08-05T20:28:55.793Z,100324.59
2022-08-05T20:31:37.333Z,100339.16
2022-08-05T20:34:14.871Z,100338.06
2022-08-05T20:36:43.842Z,100336.38
2022-08-05T20:39:16.389Z,100343.88
2022-08-05T20:41:47.754Z,100344.41
2022-08-05T20:44:30.129Z,100348.16
2022-08-05T20:47:04.379Z,100354.84
2022-08-05T20:49:39.743Z,100360.75
2022-08-05T20:52:08.893Z,100371.75
2022-08-05T20:54:59.805Z,100373.09
2022-08-05T20:57:42.973Z,100374.94
2022-08-05T21:00:41.139Z,100362.75
2022-08-05T21:03:07.093Z,100364.56
2022-08-05T21:05:54.034Z,100358.63
2022-08-05T21:08:41.398Z,100356.94
2022-08-05T21:11:12.408Z,100352.81
2022-08-05T21:13:47.882Z,100351.38
2022-08-05T21:16:29.325Z,100356.94
2022-08-05T21:19:00.855Z,100355.03
2022-08-05T21:21:38.970Z,100359.06
2022-08-05T21:24:09.895Z,100367.63
2022-08-05T21:26:41.404Z,100367.84
2022-08-05T21:29:12.652Z,100368.88
2022-08-05T21:31:45.030Z,100377.91
2022-08-05T21:34:15.782Z,100377.88
2022-08-05T21:36:46.632Z,100377.81
2022-08-05T21:39:26.333Z,100379.34
2022-08-05T21:42:02.028Z,100387.81
2022-08-05T21:44:31.959Z,100388.81
2022-08-05T21:47:00.620Z,100387.38
2022-08-05T21:50:00.131Z,100396.50
2022-08-05T21:52:27.775Z,100388.69
2022-08-05T21:55:06.061Z,100386.59
2022-08-05T21:57:36.254Z,100385.75
2022-08-05T22:00:11.373Z,100377.63
2022-08-05T22:02:43.527Z,100392.16
2022-08-05T22:05:14.503Z,100384.03
2022-08-05T22:07:59.427Z,100381.25
2022-08-05T22:10:30.979Z,100380.63
2022-08-05T22:13:21.975Z,100378.13
2022-08-05T22:16:01.845Z,100387.81
2022-08-05T22:18:35.977Z,100391.25
2022-08-05T22:21:19.466Z,100393.19
2022-08-05T22:24:08.967Z,100391.81
2022-08-05T22:27:00.031Z,100387.44
2022-08-05T22:29:30.807Z,100386.84
2022-08-05T22:32:04.096Z,100387.34
2022-08-05T22:34:33.607Z,100384.00
2022-08-05T22:37:04.029Z,100381.25
2022-08-05T22:39:34.528Z,100385.16
2022-08-05T22:42:12.232Z,100374.34
2022-08-05T22:44:53.618Z,100385.00
2022-08-05T22:47:28.972Z,100373.13
2022-08-05T22:50:19.552Z,100374.34
2022-08-05T22:52:50.002Z,100381.03
2022-08-05T22:55:21.502Z,100373.91
2022-08-05T22:57:51.807Z,100366.56
2022-08-05T23:00:22.993Z,100363.00
2022-08-05T23:02:53.524Z,100351.94
2022-08-05T23:05:22.913Z,100360.22
2022-08-05T23:07:51.780Z,100360.22
2022-08-05T23:10:23.923Z,100356.97
2022-08-05T23:12:55.080Z,100355.09
2022-08-05T23:15:27.159Z,100351.34
2022-08-05T23:18:02.159Z,100353.16
2022-08-05T23:20:33.474Z,100356.28
2022-08-05T23:23:08.180Z,100347.94
2022-08-05T23:25:53.630Z,100343.28
2022-08-05T23:28:28.935Z,100341.56
2022-08-05T23:31:16.386Z,100336.09
2022-08-05T23:34:04.083Z,100331.69
2022-08-05T23:36:38.533Z,100327.38
2022-08-05T23:39:08.350Z,100329.97
2022-08-05T23:41:37.344Z,100332.31
2022-08-05T23:44:09.633Z,100330.94
2022-08-05T23:46:39.379Z,100325.13
2022-08-05T23:49:16.993Z,100324.28
2022-08-05T23:52:09.355Z,100324.69
2022-08-05T23:54:38.496Z,100327.94
2022-08-05T23:57:07.407Z,100328.28
